createdAt,value
2023-04-20T00:01:26.170Z,9.90
2023-04-20T00:03:53.615Z,9.87
2023-04-20T00:06:21.897Z,9.53
2023-04-20T00:08:49.215Z,9.93
2023-04-20T00:11:16.378Z,9.27
2023-04-20T00:13:43.736Z,9.77
2023-04-20T00:16:11.113Z,9.87
2023-04-20T00:18:38.269Z,9.10
2023-04-20T00:21:06.243Z,8.90
2023-04-20T00:23:33.455Z,9.10
2023-04-20T00:26:00.752Z,10.20
2023-04-20T00:28:27.892Z,9.43
2023-04-20T00:30:55.128Z,9.10
2023-04-20T00:33:22.436Z,9.23
2023-04-20T00:35:49.733Z,8.80
2023-04-20T00:38:16.952Z,9.20
2023-04-20T00:40:44.850Z,9.10
2023-04-20T00:43:12.566Z,9.37
2023-04-20T00:45:39.807Z,9.40
2023-04-20T00:48:07.514Z,10.07
2023-04-20T00:50:35.968Z,10.03
2023-04-20T00:53:03.521Z,10.57
2023-04-20T00:55:31.307Z,10.20
2023-04-20T00:57:58.942Z,9.63
2023-04-20T01:00:27.525Z,9.73
2023-04-20T01:02:55.096Z,9.20
2023-04-20T01:05:22.758Z,10.67
2023-04-20T01:07:50.447Z,11.87
2023-04-20T01:10:17.761Z,10.70
2023-04-20T01:12:45.738Z,10.77
2023-04-20T01:15:13.116Z,10.47
2023-04-20T01:17:40.444Z,10.50
2023-04-20T01:20:12.682Z,9.93
2023-04-20T01:22:47.071Z,10.43
2023-04-20T01:25:14.707Z,11.27
2023-04-20T01:27:41.985Z,11.77
2023-04-20T01:30:09.450Z,12.10
2023-04-20T01:32:36.733Z,13.07
2023-04-20T01:35:04.423Z,12.77
2023-04-20T01:37:31.831Z,14.33
2023-04-20T01:39:59.140Z,13.67
2023-04-20T01:42:26.400Z,12.73
2023-04-20T01:44:53.667Z,12.47
2023-04-20T01:47:20.874Z,12.53
2023-04-20T01:49:48.105Z,12.67
2023-04-20T01:52:15.344Z,12.93
2023-04-20T01:54:42.553Z,12.07
2023-04-20T01:57:09.785Z,13.87
2023-04-20T01:59:37.005Z,13.40
2023-04-20T02:02:04.846Z,12.63
2023-04-20T02:04:32.108Z,11.33
2023-04-20T02:06:59.307Z,12.07
2023-04-20T02:09:26.893Z,11.70
2023-04-20T02:11:54.371Z,11.37
2023-04-20T02:14:22.046Z,11.23
2023-04-20T02:16:49.407Z,11.70
2023-04-20T02:19:16.846Z,10.50
2023-04-20T02:21:44.178Z,11.60
2023-04-20T02:24:11.411Z,11.67
2023-04-20T02:26:39.823Z,12.67
2023-04-20T02:29:07.040Z,12.57
2023-04-20T02:31:34.565Z,12.83
2023-04-20T02:34:02.580Z,12.00
2023-04-20T02:36:29.832Z,11.43
2023-04-20T02:38:57.035Z,13.17
2023-04-20T02:41:24.746Z,11.97
2023-04-20T02:43:51.958Z,11.73
2023-04-20T02:46:19.302Z,11.67
2023-04-20T02:48:46.553Z,13.33
2023-04-20T02:51:13.936Z,12.67
2023-04-20T02:53:41.250Z,12.80
2023-04-20T02:56:08.497Z,13.00
2023-04-20T02:58:36.143Z,12.50
2023-04-20T03:01:04.313Z,11.97
2023-04-20T03:03:31.833Z,11.50
2023-04-20T03:05:59.270Z,11.03
2023-04-20T03:08:27.042Z,11.50
2023-04-20T03:10:54.557Z,10.10
2023-04-20T03:13:21.763Z,10.57
2023-04-20T03:15:48.993Z,9.97
2023-04-20T03:18:16.150Z,11.23
2023-04-20T03:20:43.384Z,12.40
2023-04-20T03:23:11.223Z,12.77
2023-04-20T03:25:38.417Z,12.80
2023-04-20T03:28:05.753Z,11.07
2023-04-20T03:30:33.380Z,11.43
2023-04-20T03:33:01.084Z,11.87
2023-04-20T03:35:28.339Z,12.10
2023-04-20T03:37:55.591Z,12.50
2023-04-20T03:40:22.885Z,12.93
2023-04-20T03:42:50.242Z,11.10
2023-04-20T03:45:17.909Z,12.43
2023-04-20T03:47:45.212Z,10.43
2023-04-20T03:50:13.753Z,10.47
2023-04-20T03:52:41.165Z,9.80
2023-04-20T03:55:08.683Z,9.17
2023-04-20T03:57:35.888Z,9.17
2023-04-20T04:00:04.628Z,9.60
2023-04-20T04:02:32.292Z,8.47
2023-04-20T04:04:59.612Z,10.90
2023-04-20T04:07:26.921Z,9.20
2023-04-20T04:09:54.097Z,9.40
2023-04-20T04:12:21.322Z,9.93
2023-04-20T04:14:48.570Z,9.00
2023-04-20T04:17:15.863Z,9.57
2023-04-20T04:19:43.709Z,9.43
2023-04-20T04:22:11.182Z,10.33
2023-04-20T04:24:39.130Z,9.83
2023-04-20T04:27:07.017Z,9.57
2023-04-20T04:29:38.723Z,12.23
2023-04-20T04:32:06.398Z,12.10
2023-04-20T04:34:34.351Z,11.70
2023-04-20T04:37:01.931Z,10.97
2023-04-20T04:39:29.618Z,10.83
2023-04-20T04:41:57.839Z,10.07
2023-04-20T04:44:26.084Z,10.60
2023-04-20T04:46:53.602Z,10.73
2023-04-20T04:49:21.637Z,12.53
2023-04-20T04:51:48.833Z,11.57
2023-04-20T04:54:16.032Z,9.43
2023-04-20T04:56:43.239Z,10.50
2023-04-20T04:59:10.666Z,10.30
2023-04-20T05:01:37.978Z,10.93
2023-04-20T05:04:05.660Z,10.63
2023-04-20T05:06:33.216Z,10.63
2023-04-20T05:09:00.384Z,10.70
2023-04-20T05:11:27.781Z,10.77
2023-04-20T05:13:55.013Z,10.20
2023-04-20T05:16:22.319Z,11.33
2023-04-20T05:18:49.577Z,11.23
2023-04-20T05:21:17.564Z,12.70
2023-04-20T05:23:44.889Z,12.40
2023-04-20T05:26:12.526Z,11.90
2023-04-20T05:28:39.766Z,12.23
2023-04-20T05:31:08.133Z,12.30
2023-04-20T05:33:35.373Z,11.53
2023-04-20T05:36:02.673Z,11.83
2023-04-20T05:38:29.851Z,10.73
2023-04-20T05:40:57.105Z,13.37
2023-04-20T05:43:24.416Z,13.80
2023-04-20T05:45:51.687Z,12.23
2023-04-20T05:48:18.956Z,13.03
2023-04-20T05:50:46.221Z,15.60
2023-04-20T05:53:13.448Z,14.43
2023-04-20T05:55:40.593Z,14.17
2023-04-20T05:58:08.189Z,14.30
2023-04-20T06:00:35.753Z,15.50
2023-04-20T06:03:04.054Z,11.93
2023-04-20T06:05:31.562Z,12.43
2023-04-20T06:07:59.080Z,13.50
2023-04-20T06:10:26.379Z,24.37
2023-04-20T06:12:53.606Z,18.83
2023-04-20T06:15:21.201Z,18.00
2023-04-20T06:17:48.509Z,18.63
2023-04-20T06:20:16.216Z,16.90
2023-04-20T06:22:47.268Z,16.50
2023-04-20T06:25:15.866Z,16.87
2023-04-20T06:27:43.376Z,18.53
2023-04-20T06:30:11.174Z,16.70
2023-04-20T06:32:38.644Z,15.60
2023-04-20T06:35:07.177Z,16.13
2023-04-20T06:37:36.675Z,15.53
2023-04-20T06:40:10.448Z,15.93
2023-04-20T06:42:37.861Z,15.73
2023-04-20T06:45:06.536Z,15.23
2023-04-20T06:47:34.177Z,16.87
2023-04-20T06:50:02.745Z,16.27
2023-04-20T06:52:32.379Z,17.13
2023-04-20T06:55:00.558Z,17.60
2023-04-20T06:57:27.737Z,17.50
2023-04-20T06:59:55.089Z,17.77
2023-04-20T07:02:23.201Z,15.97
2023-04-20T07:04:50.555Z,16.50
2023-04-20T07:07:17.933Z,13.57
2023-04-20T07:09:45.105Z,14.60
2023-04-20T07:12:15.820Z,14.90
2023-04-20T07:14:43.571Z,14.43
2023-04-20T07:17:10.798Z,15.00
2023-04-20T07:19:37.985Z,14.20
2023-04-20T07:22:05.245Z,15.57
2023-04-20T07:24:32.592Z,14.93
2023-04-20T07:26:59.814Z,14.83
2023-04-20T07:29:26.971Z,14.90
2023-04-20T07:31:54.278Z,13.13
2023-04-20T07:34:22.112Z,13.40
2023-04-20T07:36:49.324Z,13.07
2023-04-20T07:39:16.661Z,14.23
2023-04-20T07:41:44.209Z,14.70
2023-04-20T07:44:13.412Z,14.70
2023-04-20T07:46:40.872Z,14.73
2023-04-20T07:49:08.011Z,14.23
2023-04-20T07:51:35.617Z,14.20
2023-04-20T07:54:03.350Z,15.13
2023-04-20T07:56:32.256Z,24.37
2023-04-20T07:58:59.501Z,20.87
2023-04-20T08:01:26.832Z,12.90
2023-04-20T08:03:56.112Z,12.67
2023-04-20T08:06:23.731Z,12.43
2023-04-20T08:08:51.303Z,12.77
2023-04-20T08:11:18.653Z,11.50
2023-04-20T08:13:45.963Z,11.90
2023-04-20T08:16:13.506Z,12.10
2023-04-20T08:18:40.775Z,12.50
2023-04-20T08:21:08.035Z,13.37
2023-04-20T08:23:35.352Z,13.57
2023-04-20T08:26:03.907Z,13.60
2023-04-20T08:28:34.088Z,13.33
2023-04-20T08:31:02.384Z,13.37
2023-04-20T08:33:29.727Z,13.80
2023-04-20T08:35:57.099Z,12.60
2023-04-20T08:38:33.945Z,12.40
2023-04-20T08:41:01.752Z,12.57
2023-04-20T08:43:29.057Z,13.53
2023-04-20T08:46:00.361Z,12.63
2023-04-20T08:48:31.858Z,13.87
2023-04-20T08:51:01.859Z,14.00
2023-04-20T08:53:29.173Z,14.13
2023-04-20T08:55:57.650Z,12.13
2023-04-20T08:58:37.055Z,11.90
2023-04-20T09:01:04.467Z,11.37
2023-04-20T09:03:33.245Z,10.30
2023-04-20T09:06:00.948Z,11.90
2023-04-20T09:08:38.549Z,11.90
2023-04-20T09:11:06.133Z,11.83
2023-04-20T09:13:33.483Z,12.53
2023-04-20T09:16:13.757Z,11.00
2023-04-20T09:18:40.982Z,11.00
2023-04-20T09:21:08.834Z,12.57
2023-04-20T09:23:36.389Z,10.93
2023-04-20T09:26:03.681Z,9.77
2023-04-20T09:28:40.765Z,9.83
2023-04-20T09:31:20.623Z,9.73
2023-04-20T09:34:02.202Z,10.73
2023-04-20T09:36:37.772Z,10.50
2023-04-20T09:39:08.885Z,9.27
2023-04-20T09:41:40.403Z,9.20
2023-04-20T09:44:08.665Z,9.27
2023-04-20T09:46:36.737Z,8.53
2023-04-20T09:49:04.844Z,8.70
2023-04-20T09:51:33.565Z,8.17
2023-04-20T09:54:01.668Z,7.63
2023-04-20T09:56:29.676Z,7.37
2023-04-20T09:58:57.534Z,7.57
2023-04-20T10:01:25.087Z,7.60
2023-04-20T10:03:56.644Z,8.40
2023-04-20T10:06:28.558Z,8.37
2023-04-20T10:08:56.052Z,6.47
2023-04-20T10:11:44.545Z,8.03
2023-04-20T10:14:20.693Z,7.00
2023-04-20T10:16:59.084Z,6.50
2023-04-20T10:19:36.818Z,7.00
2023-04-20T10:22:04.794Z,7.60
2023-04-20T10:24:32.435Z,7.70
2023-04-20T10:26:59.769Z,5.80
2023-04-20T10:29:27.678Z,7.60
2023-04-20T10:31:55.981Z,8.00
2023-04-20T10:34:33.091Z,6.43
2023-04-20T10:37:10.382Z,7.03
2023-04-20T10:39:38.154Z,7.60
2023-04-20T10:42:05.557Z,7.70
2023-04-20T10:44:34.248Z,7.10
2023-04-20T10:47:01.874Z,6.70
2023-04-20T10:49:30.069Z,6.30
2023-04-20T10:51:57.507Z,5.47
2023-04-20T10:54:25.040Z,5.67
2023-04-20T10:56:53.000Z,5.50
2023-04-20T10:59:21.608Z,5.00
2023-04-20T11:01:49.631Z,5.53
2023-04-20T11:04:18.891Z,4.70
2023-04-20T11:06:48.653Z,5.03
2023-04-20T11:09:23.769Z,4.83
2023-04-20T11:12:02.096Z,5.07
2023-04-20T11:14:30.096Z,4.37
2023-04-20T11:16:57.845Z,5.00
2023-04-20T11:19:29.267Z,3.77
2023-04-20T11:21:56.561Z,4.13
2023-04-20T11:24:25.255Z,4.07
2023-04-20T11:26:55.964Z,3.67
2023-04-20T11:29:33.253Z,3.87
2023-04-20T11:32:01.703Z,4.03
2023-04-20T11:34:29.362Z,4.63
2023-04-20T11:36:57.208Z,4.90
2023-04-20T11:39:29.816Z,5.03
2023-04-20T11:41:57.379Z,6.60
2023-04-20T11:44:25.982Z,5.13
2023-04-20T11:46:54.680Z,5.53
2023-04-20T11:49:22.135Z,6.33
2023-04-20T11:51:49.414Z,6.40
2023-04-20T11:54:16.858Z,6.87
2023-04-20T11:56:44.906Z,7.20
2023-04-20T11:59:14.404Z,7.70
2023-04-20T12:01:41.627Z,7.40
2023-04-20T12:04:09.636Z,8.00
2023-04-20T12:06:37.046Z,7.90
2023-04-20T12:09:06.352Z,8.67
2023-04-20T12:11:33.607Z,8.83
2023-04-20T12:14:01.247Z,8.80
2023-04-20T12:16:28.610Z,8.40
2023-04-20T12:18:56.382Z,8.00
2023-04-20T12:21:23.714Z,12.40
2023-04-20T12:23:51.290Z,11.30
2023-04-20T12:26:18.544Z,10.00
2023-04-20T12:28:45.870Z,11.40
2023-04-20T12:31:13.404Z,9.50
2023-04-20T12:33:40.602Z,8.97
2023-04-20T12:36:07.888Z,9.90
2023-04-20T12:38:35.084Z,8.77
2023-04-20T12:41:02.494Z,9.60
2023-04-20T12:43:31.720Z,8.40
2023-04-20T12:45:58.934Z,7.27
2023-04-20T12:48:26.573Z,8.57
2023-04-20T12:50:53.816Z,8.30
2023-04-20T12:53:21.164Z,7.20
2023-04-20T12:55:49.538Z,7.80
2023-04-20T12:58:20.371Z,8.30
2023-04-20T13:00:47.896Z,7.53
2023-04-20T13:03:15.664Z,7.53
2023-04-20T13:05:44.547Z,7.40
2023-04-20T13:08:11.741Z,7.63
2023-04-20T13:10:40.590Z,15.20
2023-04-20T13:13:07.720Z,10.77
2023-04-20T13:18:05.616Z,10.30
2023-04-20T13:20:32.917Z,8.50
2023-04-20T13:23:01.551Z,7.67
2023-04-20T13:25:30.005Z,7.30
2023-04-20T13:27:57.761Z,7.13
2023-04-20T13:30:25.108Z,7.93
2023-04-20T13:32:52.403Z,7.93
2023-04-20T13:35:19.862Z,7.63
2023-04-20T13:37:47.196Z,7.20
2023-04-20T13:40:14.680Z,6.87
2023-04-20T13:42:41.942Z,7.30
2023-04-20T13:45:10.781Z,7.10
2023-04-20T13:47:38.941Z,6.90
2023-04-20T13:50:06.948Z,7.40
2023-04-20T13:52:34.175Z,6.60
2023-04-20T13:55:01.729Z,8.47
2023-04-20T13:57:31.575Z,10.07
2023-04-20T14:00:01.084Z,8.33
2023-04-20T14:02:29.128Z,7.73
2023-04-20T14:04:56.934Z,6.30
2023-04-20T14:07:24.177Z,7.23
2023-04-20T14:09:52.884Z,6.70
2023-04-20T14:12:22.069Z,7.53
2023-04-20T14:14:49.260Z,7.13
2023-04-20T14:17:19.529Z,7.97
2023-04-20T14:19:46.836Z,7.67
2023-04-20T14:22:14.082Z,8.50
2023-04-20T14:24:41.410Z,8.20
2023-04-20T14:27:09.748Z,8.63
2023-04-20T14:29:37.147Z,9.00
2023-04-20T14:32:05.023Z,8.73
2023-04-20T14:34:32.236Z,10.87
2023-04-20T14:36:59.442Z,9.57
2023-04-20T14:39:26.669Z,9.73
2023-04-20T14:41:53.851Z,10.87
2023-04-20T14:44:21.159Z,10.70
2023-04-20T14:46:48.714Z,9.40
2023-04-20T14:49:15.996Z,10.20
2023-04-20T14:51:43.238Z,10.23
2023-04-20T14:54:11.131Z,10.53
2023-04-20T14:56:38.378Z,9.87
2023-04-20T14:59:05.719Z,9.57
2023-04-20T15:01:33.103Z,9.33
2023-04-20T15:04:00.757Z,8.67
2023-04-20T15:06:28.649Z,10.30
2023-04-20T15:08:56.576Z,17.33
2023-04-20T15:11:23.819Z,12.47
2023-04-20T15:13:52.170Z,10.50
2023-04-20T15:16:19.407Z,9.23
2023-04-20T15:18:46.757Z,9.37
2023-04-20T15:21:13.907Z,9.47
2023-04-20T15:23:41.141Z,10.13
2023-04-20T15:26:09.100Z,8.63
2023-04-20T15:28:36.374Z,8.60
2023-04-20T15:31:03.628Z,9.03
2023-04-20T15:33:30.976Z,10.83
2023-04-20T15:35:58.273Z,8.40
2023-04-20T15:38:25.560Z,8.27
2023-04-20T15:40:53.875Z,12.00
2023-04-20T15:43:21.131Z,10.53
2023-04-20T15:45:48.571Z,9.47
2023-04-20T15:48:15.764Z,7.90
2023-04-20T15:50:43.062Z,8.47
2023-04-20T15:53:10.275Z,6.90
2023-04-20T15:55:40.770Z,9.00
2023-04-20T15:58:07.974Z,8.70
2023-04-20T16:00:35.329Z,8.33
2023-04-20T16:03:02.841Z,7.53
2023-04-20T16:05:30.243Z,8.40
2023-04-20T16:07:57.982Z,8.40
2023-04-20T16:10:27.343Z,8.73
2023-04-20T16:12:56.113Z,10.13
2023-04-20T16:15:24.762Z,10.00
2023-04-20T16:17:52.234Z,10.30
2023-04-20T16:20:19.650Z,28.37
2023-04-20T16:22:46.855Z,10.70
2023-04-20T16:25:23.177Z,11.10
2023-04-20T16:27:51.698Z,10.60
2023-04-20T16:30:19.426Z,12.00
2023-04-20T16:32:46.701Z,12.43
2023-04-20T16:35:14.105Z,12.97
2023-04-20T16:37:41.316Z,11.23
2023-04-20T16:40:09.913Z,11.97
2023-04-20T16:42:37.245Z,14.27
2023-04-20T16:45:08.015Z,12.67
2023-04-20T16:47:35.255Z,11.70
2023-04-20T16:50:02.566Z,11.63
2023-04-20T16:52:29.833Z,12.23
2023-04-20T16:54:56.988Z,15.80
2023-04-20T16:57:24.281Z,14.53
2023-04-20T16:59:51.438Z,11.13
2023-04-20T17:02:19.032Z,12.80
2023-04-20T17:04:46.249Z,12.40
2023-04-20T17:07:14.107Z,14.03
2023-04-20T17:09:41.280Z,14.03
2023-04-20T17:12:08.707Z,13.63
2023-04-20T17:14:37.325Z,15.80
2023-04-20T17:17:04.770Z,14.27
2023-04-20T17:19:32.286Z,14.63
2023-04-20T17:21:59.919Z,16.73
2023-04-20T17:24:27.142Z,16.50
2023-04-20T17:26:54.524Z,14.20
2023-04-20T17:29:21.831Z,17.37
2023-04-20T17:31:49.163Z,17.47
2023-04-20T17:34:16.695Z,17.43
2023-04-20T17:36:44.055Z,16.63
2023-04-20T17:39:11.472Z,15.77
2023-04-20T17:41:38.671Z,15.67
2023-04-20T17:44:06.126Z,16.60
2023-04-20T17:46:33.425Z,16.27
2023-04-20T17:49:01.171Z,15.83
2023-04-20T17:51:28.570Z,17.03
2023-04-20T17:53:58.602Z,17.03
2023-04-20T17:56:28.096Z,15.90
2023-04-20T17:58:56.975Z,16.30
2023-04-20T18:01:24.492Z,15.33
2023-04-20T18:03:51.943Z,15.83
2023-04-20T18:06:21.635Z,16.77
2023-04-20T18:08:51.700Z,17.57
2023-04-20T18:11:19.518Z,16.80
2023-04-20T18:13:46.968Z,18.30
2023-04-20T18:16:14.471Z,18.67
2023-04-20T18:18:41.809Z,21.23
2023-04-20T18:21:12.344Z,22.07
2023-04-20T18:23:39.861Z,18.83
2023-04-20T18:26:07.639Z,17.33
2023-04-20T18:28:35.384Z,17.97
2023-04-20T18:31:05.322Z,18.17
2023-04-20T18:33:33.065Z,17.60
2023-04-20T18:36:00.583Z,16.50
2023-04-20T18:38:28.227Z,17.50
2023-04-20T18:40:55.744Z,16.60
2023-04-20T18:43:23.138Z,17.67
2023-04-20T18:45:51.186Z,17.30
2023-04-20T18:48:18.664Z,15.60
2023-04-20T18:50:47.945Z,16.50
2023-04-20T18:53:15.718Z,16.03
2023-04-20T18:55:42.979Z,16.73
2023-04-20T18:58:10.306Z,17.90
2023-04-20T19:00:37.600Z,17.90
2023-04-20T19:03:06.479Z,17.63
2023-04-20T19:05:34.974Z,16.87
2023-04-20T19:08:03.485Z,16.43
2023-04-20T19:10:32.535Z,16.97
2023-04-20T19:12:59.792Z,18.10
2023-04-20T19:15:30.005Z,18.47
2023-04-20T19:17:58.781Z,17.33
2023-04-20T19:20:26.472Z,19.70
2023-04-20T19:22:53.964Z,18.37
2023-04-20T19:25:21.971Z,18.03
2023-04-20T19:27:49.862Z,18.97
2023-04-20T19:30:17.818Z,20.87
2023-04-20T19:32:45.757Z,20.63
2023-04-20T19:35:13.388Z,21.60
2023-04-20T19:37:43.012Z,20.20
2023-04-20T19:40:10.952Z,20.60
2023-04-20T19:42:40.901Z,20.03
2023-04-20T19:45:09.888Z,21.13
2023-04-20T19:47:39.340Z,21.93
2023-04-20T19:50:07.143Z,21.27
2023-04-20T19:52:35.889Z,22.10
2023-04-20T19:55:04.219Z,24.60
2023-04-20T19:57:31.672Z,23.30
2023-04-20T20:00:00.322Z,23.10
2023-04-20T20:02:27.846Z,22.93
2023-04-20T20:04:59.256Z,25.30
2023-04-20T20:07:28.134Z,21.87
2023-04-20T20:09:55.536Z,26.90
2023-04-20T20:12:22.982Z,20.23
2023-04-20T20:14:50.539Z,21.00
2023-04-20T20:17:19.916Z,24.83
2023-04-20T20:19:48.135Z,22.00
2023-04-20T20:22:15.798Z,22.33
2023-04-20T20:24:44.852Z,21.73
2023-04-20T20:27:12.513Z,20.30
2023-04-20T20:29:39.824Z,20.87
2023-04-20T20:32:07.127Z,20.00
2023-04-20T20:34:34.339Z,20.37
2023-04-20T20:37:04.385Z,19.40
2023-04-20T20:39:32.699Z,18.50
2023-04-20T20:42:00.091Z,19.23
2023-04-20T20:44:29.028Z,19.43
2023-04-20T20:46:56.716Z,19.30
2023-04-20T20:49:24.520Z,18.23
2023-04-20T20:51:52.335Z,18.07
2023-04-20T20:54:19.754Z,19.70
2023-04-20T20:56:46.950Z,18.77
2023-04-20T20:59:14.345Z,19.07
2023-04-20T21:01:43.226Z,22.27
2023-04-20T21:04:10.777Z,18.23
2023-04-20T21:06:38.628Z,16.57
2023-04-20T21:09:06.028Z,17.90
2023-04-20T21:11:33.430Z,16.30
2023-04-20T21:14:03.174Z,16.87
2023-04-20T21:16:30.511Z,18.53
2023-04-20T21:18:57.985Z,18.27
2023-04-20T21:21:25.330Z,17.53
2023-04-20T21:23:53.236Z,16.80
2023-04-20T21:26:20.452Z,15.87
2023-04-20T21:28:48.077Z,15.90
2023-04-20T21:31:15.906Z,18.30
2023-04-20T21:33:43.284Z,16.10
2023-04-20T21:36:10.949Z,16.70
2023-04-20T21:38:38.386Z,15.50
2023-04-20T21:41:06.329Z,16.40
2023-04-20T21:43:33.938Z,16.93
2023-04-20T21:46:01.426Z,16.00
2023-04-20T21:48:29.126Z,14.90
2023-04-20T21:50:56.517Z,14.43
2023-04-20T21:53:23.955Z,13.53
2023-04-20T21:55:51.594Z,15.27
2023-04-20T21:58:19.148Z,13.33
2023-04-20T22:00:46.697Z,13.10
2023-04-20T22:03:14.332Z,12.17
2023-04-20T22:05:42.039Z,11.60
2023-04-20T22:08:09.749Z,10.63
2023-04-20T22:10:37.446Z,10.07
2023-04-20T22:13:04.770Z,9.80
2023-04-20T22:15:32.321Z,9.67
2023-04-20T22:18:01.575Z,9.93
2023-04-20T22:20:29.070Z,10.37
2023-04-20T22:22:57.454Z,9.90
2023-04-20T22:25:25.181Z,10.23
2023-04-20T22:27:52.390Z,9.43
2023-04-20T22:30:19.670Z,8.17
2023-04-20T22:32:47.076Z,7.57
2023-04-20T22:35:14.810Z,8.20
2023-04-20T22:37:42.751Z,7.90
2023-04-20T22:40:10.461Z,7.60
2023-04-20T22:42:37.881Z,6.47
2023-04-20T22:45:05.734Z,6.37
2023-04-20T22:47:33.202Z,6.10
2023-04-20T22:50:00.676Z,6.57
2023-04-20T22:52:28.239Z,6.40
2023-04-20T22:54:56.123Z,5.70
2023-04-20T22:57:23.520Z,6.23
2023-04-20T22:59:51.006Z,5.53
2023-04-20T23:02:18.564Z,6.43
2023-04-20T23:04:46.052Z,5.87
2023-04-20T23:07:13.780Z,5.50
2023-04-20T23:09:43.110Z,5.30
2023-04-20T23:12:10.560Z,5.87
2023-04-20T23:14:44.266Z,5.93
2023-04-20T23:17:11.601Z,6.70
2023-04-20T23:19:40.828Z,6.30
2023-04-20T23:22:09.212Z,6.23
2023-04-20T23:24:37.653Z,6.00
2023-04-20T23:27:04.984Z,6.60
2023-04-20T23:29:33.209Z,6.63
2023-04-20T23:32:01.769Z,6.57
2023-04-20T23:34:29.248Z,6.97
2023-04-20T23:36:56.682Z,7.17
2023-04-20T23:39:23.991Z,8.30
2023-04-20T23:41:51.222Z,8.03
2023-04-20T23:44:18.517Z,7.70
2023-04-20T23:46:46.402Z,8.40
2023-04-20T23:49:13.566Z,8.73
2023-04-20T23:51:41.189Z,8.60
2023-04-20T23:54:08.428Z,9.37
2023-04-20T23:56:35.779Z,9.03
2023-04-20T23:59:03.034Z,8.90
